createdAt,value
2023-02-14T00:02:43.632Z,92.50
2023-02-14T00:06:25.385Z,92.50
2023-02-14T00:10:07.986Z,92.50
2023-02-14T00:14:08.789Z,92.50
2023-02-14T00:17:55.787Z,92.50
2023-02-14T00:21:38.751Z,92.80
2023-02-14T00:25:20.558Z,92.60
2023-02-14T00:29:02.511Z,92.60
2023-02-14T00:32:44.293Z,92.50
2023-02-14T00:36:26.539Z,92.40
2023-02-14T00:40:11.650Z,92.30
2023-02-14T00:43:54.028Z,92.30
2023-02-14T00:47:35.776Z,91.90
2023-02-14T00:51:18.757Z,91.70
2023-02-14T00:55:00.490Z,91.60
2023-02-14T00:58:43.046Z,91.60
2023-02-14T01:02:27.934Z,91.50
2023-02-14T01:06:09.735Z,91.40
2023-02-14T01:09:51.476Z,91.40
2023-02-14T01:13:33.185Z,91.30
2023-02-14T01:17:17.714Z,91.30
2023-02-14T01:21:18.676Z,91.30
2023-02-14T01:25:03.033Z,91.90
2023-02-14T01:28:45.564Z,91.20
2023-02-14T01:32:31.402Z,90.90
2023-02-14T01:36:20.324Z,91.00
2023-02-14T01:40:02.919Z,91.00
2023-02-14T01:44:27.582Z,90.70
2023-02-14T01:48:11.192Z,91.40
2023-02-14T01:52:40.372Z,90.60
2023-02-14T01:56:29.310Z,91.10
2023-02-14T02:00:30.394Z,90.70
2023-02-14T02:04:16.759Z,90.50
2023-02-14T02:08:00.799Z,90.70
2023-02-14T02:11:44.567Z,90.60
2023-02-14T02:15:31.659Z,90.60
2023-02-14T02:19:16.218Z,90.70
2023-02-14T02:23:09.881Z,90.70
2023-02-14T02:26:54.623Z,91.10
2023-02-14T02:31:22.826Z,91.60
2023-02-14T02:35:05.622Z,91.70
2023-02-14T02:38:58.980Z,91.20
2023-02-14T02:42:40.647Z,91.50
2023-02-14T02:46:48.790Z,91.50
2023-02-14T02:50:56.433Z,92.10
2023-02-14T02:54:43.580Z,92.10
2023-02-14T02:58:33.157Z,92.20
2023-02-14T03:02:21.331Z,92.20
2023-02-14T03:06:03.323Z,92.40
2023-02-14T03:09:53.217Z,92.40
2023-02-14T03:14:15.801Z,92.60
2023-02-14T03:18:13.852Z,93.00
2023-02-14T03:22:37.103Z,93.20
2023-02-14T03:26:22.380Z,93.50
2023-02-14T03:30:36.669Z,93.40
2023-02-14T03:34:30.056Z,93.30
2023-02-14T03:38:18.751Z,93.60
2023-02-14T03:42:06.348Z,93.60
2023-02-14T03:45:54.719Z,93.70
2023-02-14T03:49:41.365Z,93.70
2023-02-14T03:53:28.186Z,93.60
2023-02-14T03:57:19.714Z,93.50
2023-02-14T04:01:10.834Z,93.40
2023-02-14T04:04:54.097Z,93.40
2023-02-14T04:08:35.923Z,93.40
2023-02-14T04:12:26.564Z,93.40
2023-02-14T04:16:14.274Z,93.40
2023-02-14T04:19:56.085Z,93.40
2023-02-14T04:23:37.856Z,93.30
2023-02-14T04:27:19.573Z,93.40
2023-02-14T04:31:03.801Z,93.50
2023-02-14T04:34:46.073Z,93.60
2023-02-14T04:38:28.043Z,93.70
2023-02-14T04:42:10.115Z,93.80
2023-02-14T04:45:52.046Z,93.80
2023-02-14T04:49:34.205Z,93.80
2023-02-14T04:53:15.931Z,93.90
2023-02-14T04:56:57.718Z,94.10
2023-02-14T05:00:39.478Z,94.10
2023-02-14T05:04:21.637Z,94.20
2023-02-14T05:08:03.372Z,94.00
2023-02-14T05:11:45.111Z,94.00
2023-02-14T05:15:26.937Z,94.00
2023-02-14T05:19:08.987Z,94.10
2023-02-14T05:22:50.805Z,94.30
2023-02-14T05:26:32.561Z,94.50
2023-02-14T05:30:14.769Z,94.50
2023-02-14T05:33:56.505Z,94.50
2023-02-14T05:37:38.216Z,94.50
2023-02-14T05:41:19.929Z,94.60
2023-02-14T05:45:01.708Z,94.70
2023-02-14T05:48:44.388Z,94.90
2023-02-14T05:52:26.260Z,95.20
2023-02-14T05:56:08.286Z,95.40
2023-02-14T05:59:50.049Z,95.60
2023-02-14T06:03:31.835Z,95.60
2023-02-14T06:07:13.568Z,95.80
2023-02-14T06:10:55.340Z,95.70
2023-02-14T06:14:37.336Z,95.70
2023-02-14T06:18:19.129Z,95.90
2023-02-14T06:22:00.868Z,95.60
2023-02-14T06:25:42.671Z,95.60
2023-02-14T06:29:24.439Z,95.60
2023-02-14T06:33:06.169Z,95.60
2023-02-14T06:36:47.895Z,95.70
2023-02-14T06:40:29.664Z,95.70
2023-02-14T06:44:11.379Z,95.70
2023-02-14T06:47:53.108Z,95.80
2023-02-14T06:51:34.835Z,95.80
2023-02-14T06:55:16.721Z,95.90
2023-02-14T06:58:58.510Z,96.00
2023-02-14T07:02:40.504Z,96.10
2023-02-14T07:06:22.280Z,96.10
2023-02-14T07:10:04.679Z,96.10
2023-02-14T07:13:49.152Z,96.10
2023-02-14T07:17:31.147Z,96.00
2023-02-14T07:21:12.942Z,95.80
2023-02-14T07:24:57.880Z,95.80
2023-02-14T07:28:39.628Z,95.80
2023-02-14T07:32:21.561Z,95.60
2023-02-14T07:36:08.083Z,95.50
2023-02-14T07:39:49.837Z,95.70
2023-02-14T07:43:34.830Z,95.30
2023-02-14T07:47:16.577Z,95.40
2023-02-14T07:50:58.707Z,95.10
2023-02-14T07:54:40.584Z,95.20
2023-02-14T07:58:22.622Z,95.20
2023-02-14T08:02:04.990Z,95.20
2023-02-14T08:05:57.258Z,95.20
2023-02-14T08:09:39.176Z,95.60
2023-02-14T08:13:21.537Z,95.50
2023-02-14T08:17:03.616Z,95.70
2023-02-14T08:20:49.900Z,95.70
2023-02-14T08:24:32.274Z,95.80
2023-02-14T08:28:14.871Z,95.80
2023-02-14T08:32:00.266Z,95.90
2023-02-14T08:35:42.321Z,96.00
2023-02-14T08:39:24.173Z,96.10
2023-02-14T08:43:06.861Z,96.10
2023-02-14T08:46:48.680Z,96.20
2023-02-14T08:50:30.997Z,96.30
2023-02-14T08:54:13.058Z,96.30
2023-02-14T08:57:58.113Z,96.40
2023-02-14T09:01:39.875Z,96.60
2023-02-14T09:05:23.384Z,96.40
2023-02-14T09:09:06.273Z,96.50
2023-02-14T09:12:48.547Z,96.50
2023-02-14T09:16:30.434Z,96.60
2023-02-14T09:20:14.015Z,96.60
2023-02-14T09:23:55.787Z,96.70
2023-02-14T09:27:37.910Z,96.70
2023-02-14T09:31:22.823Z,96.70
2023-02-14T09:35:04.912Z,96.80
2023-02-14T09:38:47.068Z,96.60
2023-02-14T09:42:37.890Z,96.70
2023-02-14T09:46:21.404Z,97.00
2023-02-14T09:50:11.951Z,96.70
2023-02-14T09:53:56.778Z,96.90
2023-02-14T09:57:45.163Z,96.80
2023-02-14T10:01:33.241Z,96.90
2023-02-14T10:05:29.161Z,96.90
2023-02-14T10:09:22.775Z,97.10
2023-02-14T10:13:13.663Z,96.80
2023-02-14T10:17:09.435Z,96.90
2023-02-14T10:20:59.776Z,96.50
2023-02-14T10:24:53.594Z,96.70
2023-02-14T10:28:43.775Z,96.50
2023-02-14T10:32:38.163Z,96.60
2023-02-14T10:36:46.413Z,96.70
2023-02-14T10:40:52.902Z,96.70
2023-02-14T10:45:07.040Z,96.60
2023-02-14T10:48:51.781Z,96.60
2023-02-14T10:52:44.844Z,96.40
2023-02-14T10:56:43.387Z,96.50
2023-02-14T11:00:31.348Z,96.60
2023-02-14T11:04:15.869Z,96.80
2023-02-14T11:07:59.151Z,96.50
2023-02-14T11:11:43.419Z,96.50
2023-02-14T11:15:35.664Z,96.50
2023-02-14T11:19:31.190Z,96.60
2023-02-14T11:23:21.424Z,96.70
2023-02-14T11:27:12.301Z,96.70
2023-02-14T11:30:54.655Z,96.70
2023-02-14T11:34:45.015Z,96.60
2023-02-14T11:38:36.766Z,96.60
2023-02-14T11:42:42.539Z,96.60
2023-02-14T11:46:24.571Z,96.50
2023-02-14T11:50:22.393Z,96.50
2023-02-14T11:54:05.679Z,96.50
2023-02-14T11:57:47.377Z,96.40
2023-02-14T12:01:38.673Z,96.40
2023-02-14T12:05:31.285Z,96.40
2023-02-14T12:09:12.965Z,96.40
2023-02-14T12:13:07.364Z,96.40
2023-02-14T12:17:27.335Z,96.30
2023-02-14T12:21:35.558Z,96.30
2023-02-14T12:25:23.063Z,96.20
2023-02-14T12:29:29.721Z,96.30
2023-02-14T12:33:29.657Z,96.30
2023-02-14T12:37:31.540Z,96.60
2023-02-14T12:41:35.210Z,96.10
2023-02-14T12:45:26.568Z,95.90
2023-02-14T12:49:49.625Z,96.00
2023-02-14T12:53:38.625Z,95.50
2023-02-14T12:57:27.826Z,95.70
2023-02-14T13:01:29.010Z,95.80
2023-02-14T13:05:38.708Z,95.80
2023-02-14T13:09:59.290Z,95.20
2023-02-14T13:14:06.287Z,94.50
2023-02-14T13:17:56.314Z,94.40
2023-02-14T13:21:40.330Z,94.70
2023-02-14T13:25:33.669Z,94.90
2023-02-14T13:29:23.619Z,94.20
2023-02-14T13:33:17.235Z,94.00
2023-02-14T13:37:00.620Z,94.30
2023-02-14T13:40:43.044Z,94.50
2023-02-14T13:44:43.471Z,94.40
2023-02-14T13:48:29.322Z,92.70
2023-02-14T13:52:11.221Z,93.60
2023-02-14T13:55:55.915Z,94.00
2023-02-14T13:59:37.732Z,93.90
2023-02-14T14:03:28.874Z,93.80
2023-02-14T14:07:18.687Z,92.10
2023-02-14T14:11:11.008Z,92.90
2023-02-14T14:15:04.813Z,92.70
2023-02-14T14:18:46.820Z,92.10
2023-02-14T14:22:29.168Z,93.10
2023-02-14T14:26:34.001Z,92.90
2023-02-14T14:30:21.262Z,92.10
2023-02-14T14:34:03.063Z,92.50
2023-02-14T14:38:01.538Z,92.80
2023-02-14T14:41:47.288Z,92.00
2023-02-14T14:45:30.390Z,92.40
2023-02-14T14:49:12.959Z,92.50
2023-02-14T14:52:57.351Z,92.50
2023-02-14T14:56:54.980Z,92.30
2023-02-14T15:00:42.464Z,91.80
2023-02-14T15:04:33.242Z,92.30
2023-02-14T15:08:32.733Z,92.10
2023-02-14T15:12:38.501Z,91.90
2023-02-14T15:16:21.490Z,92.30
2023-02-14T15:20:23.699Z,92.30
2023-02-14T15:24:14.802Z,92.10
2023-02-14T15:27:57.252Z,92.10
2023-02-14T15:31:41.491Z,92.40
2023-02-14T15:35:27.438Z,92.20
2023-02-14T15:39:12.837Z,92.00
2023-02-14T15:42:58.193Z,92.10
2023-02-14T15:46:41.536Z,92.10
2023-02-14T15:50:26.036Z,92.10
2023-02-14T15:54:28.044Z,91.70
2023-02-14T15:58:20.335Z,91.20
2023-02-14T16:02:17.176Z,91.40
2023-02-14T16:06:00.190Z,91.70
2023-02-14T16:09:42.550Z,91.80
2023-02-14T16:13:36.672Z,91.70
2023-02-14T16:17:34.762Z,90.90
2023-02-14T16:21:28.244Z,90.50
2023-02-14T16:25:09.859Z,90.70
2023-02-14T16:28:51.572Z,91.00
2023-02-14T16:32:33.429Z,91.20
2023-02-14T16:36:23.604Z,91.20
2023-02-14T16:40:14.143Z,89.40
2023-02-14T16:43:56.908Z,88.90
2023-02-14T16:47:38.643Z,90.20
2023-02-14T16:51:27.358Z,90.10
2023-02-14T16:55:17.727Z,88.10
2023-02-14T16:59:00.123Z,86.90
2023-02-14T17:02:44.136Z,89.40
2023-02-14T17:06:27.853Z,89.20
2023-02-14T17:10:21.711Z,88.40
2023-02-14T17:14:03.956Z,87.70
2023-02-14T17:17:48.941Z,88.50
2023-02-14T17:21:31.012Z,87.50
2023-02-14T17:25:12.780Z,88.10
2023-02-14T17:28:54.600Z,88.00
2023-02-14T17:32:36.358Z,87.60
2023-02-14T17:36:18.094Z,87.30
2023-02-14T17:40:00.348Z,86.90
2023-02-14T17:43:42.443Z,86.60
2023-02-14T17:47:26.320Z,86.30
2023-02-14T17:51:09.374Z,86.00
2023-02-14T17:54:51.405Z,85.50
2023-02-14T17:58:33.298Z,85.90
2023-02-14T18:02:15.189Z,85.80
2023-02-14T18:05:58.640Z,85.80
2023-02-14T18:09:40.273Z,85.40
2023-02-14T18:13:23.897Z,85.20
2023-02-14T18:17:05.952Z,85.70
2023-02-14T18:20:58.474Z,86.00
2023-02-14T18:24:40.415Z,84.80
2023-02-14T18:28:23.705Z,86.10
2023-02-14T18:32:05.686Z,86.10
2023-02-14T18:35:47.905Z,86.20
2023-02-14T18:39:29.751Z,86.00
2023-02-14T18:43:12.002Z,86.00
2023-02-14T18:46:53.767Z,85.90
2023-02-14T18:50:35.664Z,86.00
2023-02-14T18:54:17.456Z,86.30
2023-02-14T18:57:59.254Z,86.60
2023-02-14T19:01:45.554Z,87.50
2023-02-14T19:05:27.327Z,87.40
2023-02-14T19:09:14.078Z,87.00
2023-02-14T19:12:55.979Z,86.90
2023-02-14T19:16:52.201Z,87.10
2023-02-14T19:20:33.962Z,87.10
2023-02-14T19:24:17.502Z,87.30
2023-02-14T19:27:59.275Z,87.40
2023-02-14T19:31:43.747Z,87.40
2023-02-14T19:35:25.895Z,87.20
2023-02-14T19:39:07.729Z,87.10
2023-02-14T19:42:50.239Z,87.00
2023-02-14T19:46:32.998Z,87.10
2023-02-14T19:50:14.874Z,87.50
2023-02-14T19:53:58.336Z,87.60
2023-02-14T19:57:41.125Z,87.80
2023-02-14T20:01:34.529Z,88.60
2023-02-14T20:05:18.259Z,88.40
2023-02-14T20:09:00.068Z,88.10
2023-02-14T20:12:41.890Z,87.80
2023-02-14T20:16:25.002Z,87.70
2023-02-14T20:20:08.390Z,87.70
2023-02-14T20:23:50.348Z,87.90
2023-02-14T20:27:32.093Z,89.10
2023-02-14T20:31:15.902Z,87.80
2023-02-14T20:34:58.648Z,87.90
2023-02-14T20:38:40.605Z,87.50
2023-02-14T20:42:23.507Z,87.20
2023-02-14T20:46:07.054Z,87.00
2023-02-14T20:49:49.920Z,86.80
2023-02-14T20:53:33.174Z,86.70
2023-02-14T20:57:15.118Z,86.70
2023-02-14T21:00:57.085Z,86.80
2023-02-14T21:04:38.942Z,86.80
2023-02-14T21:08:20.664Z,86.70
2023-02-14T21:12:02.558Z,86.60
2023-02-14T21:15:44.349Z,86.70
2023-02-14T21:19:28.539Z,86.60
2023-02-14T21:23:10.474Z,86.40
2023-02-14T21:26:52.299Z,86.40
2023-02-14T21:30:34.055Z,86.40
2023-02-14T21:34:16.675Z,86.30
2023-02-14T21:37:58.530Z,86.20
2023-02-14T21:41:40.347Z,86.80
2023-02-14T21:45:40.897Z,86.10
2023-02-14T21:49:41.227Z,86.10
2023-02-14T21:53:22.951Z,86.00
2023-02-14T21:57:04.703Z,85.80
2023-02-14T22:00:48.123Z,86.00
2023-02-14T22:04:29.889Z,86.10
2023-02-14T22:08:11.884Z,87.20
2023-02-14T22:11:53.665Z,86.10
2023-02-14T22:15:37.464Z,86.20
2023-02-14T22:19:19.224Z,86.40
2023-02-14T22:23:01.037Z,86.60
2023-02-14T22:26:43.039Z,86.80
2023-02-14T22:30:24.912Z,86.60
2023-02-14T22:34:08.969Z,86.50
2023-02-14T22:37:50.764Z,86.50
2023-02-14T22:41:37.588Z,86.70
2023-02-14T22:45:19.430Z,86.80
2023-02-14T22:49:01.198Z,86.90
2023-02-14T22:52:42.900Z,86.80
2023-02-14T22:56:27.068Z,86.90
2023-02-14T23:00:11.627Z,86.90
2023-02-14T23:03:58.926Z,86.80
2023-02-14T23:07:40.715Z,87.10
2023-02-14T23:11:25.573Z,86.90
2023-02-14T23:15:28.868Z,87.20
2023-02-14T23:19:40.872Z,87.40
2023-02-14T23:23:22.601Z,87.90
2023-02-14T23:27:08.866Z,87.30
2023-02-14T23:30:50.603Z,87.70
2023-02-14T23:34:34.480Z,87.80
2023-02-14T23:38:16.205Z,88.10
2023-02-14T23:41:58.119Z,88.00
2023-02-14T23:45:41.874Z,88.10
2023-02-14T23:49:25.178Z,88.40
2023-02-14T23:53:07.199Z,88.60
2023-02-14T23:56:50.533Z,88.60
